sensor_id;sensor_type;location;lat;lon;timestamp;pressure;altitude;pressure_sealevel;temperature;humidity
31761;BME280;18335;51.486;7.562;2023-04-04T00:00:42;101549.56;;;-0.28;100.00
31761;BME280;18335;51.486;7.562;2023-04-04T00:03:09;101545.28;;;-0.32;100.00
31761;BME280;18335;51.486;7.562;2023-04-04T00:05:36;101548.50;;;-0.24;100.00
31761;BME280;18335;51.486;7.562;2023-04-04T00:08:03;101556.13;;;-0.35;100.00
31761;BME280;18335;51.486;7.562;2023-04-04T00:10:31;101550.19;;;-0.63;100.00
31761;BME280;18335;51.486;7.562;2023-04-04T00:12:58;101543.66;;;-0.36;100.00
31761;BME280;18335;51.486;7.562;2023-04-04T00:15:24;101550.41;;;-0.47;100.00
31761;BME280;18335;51.486;7.562;2023-04-04T00:17:51;101559.00;;;-0.39;100.00
31761;BME280;18335;51.486;7.562;2023-04-04T00:20:18;101552.91;;;-0.43;100.00
31761;BME280;18335;51.486;7.562;2023-04-04T00:22:45;101556.59;;;-0.45;100.00
31761;BME280;18335;51.486;7.562;2023-04-04T00:25:12;101551.41;;;-0.50;100.00
31761;BME280;18335;51.486;7.562;2023-04-04T00:27:40;101553.97;;;-0.47;100.00
31761;BME280;18335;51.486;7.562;2023-04-04T00:30:07;101561.31;;;-0.52;100.00
31761;BME280;18335;51.486;7.562;2023-04-04T00:32:34;101548.13;;;-0.78;100.00
31761;BME280;18335;51.486;7.562;2023-04-04T00:35:01;101556.25;;;-0.60;100.00
31761;BME280;18335;51.486;7.562;2023-04-04T00:37:28;101558.81;;;-0.57;100.00
31761;BME280;18335;51.486;7.562;2023-04-04T00:39:55;101558.47;;;-0.69;100.00
31761;BME280;18335;51.486;7.562;2023-04-04T00:42:22;101551.66;;;-0.56;100.00
31761;BME280;18335;51.486;7.562;2023-04-04T00:44:51;101544.44;;;-0.76;100.00
31761;BME280;18335;51.486;7.562;2023-04-04T00:47:21;101557.34;;;-0.64;100.00
31761;BME280;18335;51.486;7.562;2023-04-04T00:49:48;101550.69;;;-0.75;100.00
31761;BME280;18335;51.486;7.562;2023-04-04T00:52:15;101550.06;;;-0.60;100.00
31761;BME280;18335;51.486;7.562;2023-04-04T00:54:42;101545.06;;;-0.69;100.00
31761;BME280;18335;51.486;7.562;2023-04-04T00:57:09;101543.19;;;-0.67;100.00
31761;BME280;18335;51.486;7.562;2023-04-04T00:59:37;101546.81;;;-0.68;100.00
31761;BME280;18335;51.486;7.562;2023-04-04T01:02:05;101544.38;;;-0.74;100.00
31761;BME280;18335;51.486;7.562;2023-04-04T01:04:32;101548.94;;;-0.76;100.00
31761;BME280;18335;51.486;7.562;2023-04-04T01:06:59;101556.53;;;-1.11;100.00
31761;BME280;18335;51.486;7.562;2023-04-04T01:09:26;101542.44;;;-0.92;100.00
31761;BME280;18335;51.486;7.562;2023-04-04T01:11:54;101545.34;;;-0.98;100.00
31761;BME280;18335;51.486;7.562;2023-04-04T01:14:22;101546.94;;;-0.93;100.00
31761;BME280;18335;51.486;7.562;2023-04-04T01:16:50;101548.66;;;-1.14;100.00
31761;BME280;18335;51.486;7.562;2023-04-04T01:19:25;101544.34;;;-1.18;100.00
31761;BME280;18335;51.486;7.562;2023-04-04T01:21:56;101546.66;;;-1.08;100.00
31761;BME280;18335;51.486;7.562;2023-04-04T01:24:25;101547.31;;;-1.02;100.00
31761;BME280;18335;51.486;7.562;2023-04-04T01:26:58;101550.03;;;-1.03;100.00
31761;BME280;18335;51.486;7.562;2023-04-04T01:29:26;101543.31;;;-1.14;100.00
31761;BME280;18335;51.486;7.562;2023-04-04T01:31:56;101544.47;;;-1.21;100.00
31761;BME280;18335;51.486;7.562;2023-04-04T01:34:31;101540.34;;;-1.07;100.00
31761;BME280;18335;51.486;7.562;2023-04-04T01:37:05;101542.16;;;-1.53;100.00
31761;BME280;18335;51.486;7.562;2023-04-04T01:39:35;101542.94;;;-1.28;100.00
31761;BME280;18335;51.486;7.562;2023-04-04T01:42:05;101540.16;;;-1.25;100.00
31761;BME280;18335;51.486;7.562;2023-04-04T01:44:33;101540.84;;;-1.43;100.00
31761;BME280;18335;51.486;7.562;2023-04-04T01:47:00;101533.06;;;-1.26;100.00
31761;BME280;18335;51.486;7.562;2023-04-04T01:49:27;101536.88;;;-1.09;100.00
31761;BME280;18335;51.486;7.562;2023-04-04T01:51:55;101530.63;;;-1.55;100.00
31761;BME280;18335;51.486;7.562;2023-04-04T01:54:21;101528.81;;;-1.31;100.00
31761;BME280;18335;51.486;7.562;2023-04-04T01:56:48;101520.25;;;-1.18;100.00
31761;BME280;18335;51.486;7.562;2023-04-04T01:59:17;101524.28;;;-1.07;100.00
31761;BME280;18335;51.486;7.562;2023-04-04T02:01:44;101518.38;;;-1.16;100.00
31761;BME280;18335;51.486;7.562;2023-04-04T02:04:11;101521.13;;;-1.17;100.00
31761;BME280;18335;51.486;7.562;2023-04-04T02:06:39;101521.84;;;-1.58;100.00
31761;BME280;18335;51.486;7.562;2023-04-04T02:09:06;101521.63;;;-1.52;100.00
31761;BME280;18335;51.486;7.562;2023-04-04T02:11:33;101521.75;;;-1.34;100.00
31761;BME280;18335;51.486;7.562;2023-04-04T02:14:00;101521.44;;;-1.48;100.00
31761;BME280;18335;51.486;7.562;2023-04-04T02:16:28;101518.44;;;-1.40;100.00
31761;BME280;18335;51.486;7.562;2023-04-04T02:18:55;101519.72;;;-1.27;100.00
31761;BME280;18335;51.486;7.562;2023-04-04T02:21:22;101521.38;;;-1.23;100.00
31761;BME280;18335;51.486;7.562;2023-04-04T02:23:49;101517.59;;;-1.41;100.00
31761;BME280;18335;51.486;7.562;2023-04-04T02:26:16;101512.00;;;-1.35;100.00
31761;BME280;18335;51.486;7.562;2023-04-04T02:28:43;101522.84;;;-1.38;100.00
31761;BME280;18335;51.486;7.562;2023-04-04T02:31:10;101517.72;;;-1.44;100.00
31761;BME280;18335;51.486;7.562;2023-04-04T02:33:39;101521.31;;;-1.45;100.00
31761;BME280;18335;51.486;7.562;2023-04-04T02:36:08;101521.38;;;-1.70;100.00
31761;BME280;18335;51.486;7.562;2023-04-04T02:38:34;101515.78;;;-1.63;100.00
31761;BME280;18335;51.486;7.562;2023-04-04T02:41:04;101516.53;;;-1.60;100.00
31761;BME280;18335;51.486;7.562;2023-04-04T02:43:30;101522.94;;;-1.64;100.00
31761;BME280;18335;51.486;7.562;2023-04-04T02:45:58;101513.06;;;-1.62;100.00
31761;BME280;18335;51.486;7.562;2023-04-04T02:48:26;101513.41;;;-1.71;100.00
31761;BME280;18335;51.486;7.562;2023-04-04T02:50:58;101516.09;;;-1.96;100.00
31761;BME280;18335;51.486;7.562;2023-04-04T02:53:25;101516.31;;;-1.77;100.00
31761;BME280;18335;51.486;7.562;2023-04-04T02:55:56;101510.09;;;-1.78;100.00
31761;BME280;18335;51.486;7.562;2023-04-04T02:58:23;101513.63;;;-1.77;100.00
31761;BME280;18335;51.486;7.562;2023-04-04T03:00:53;101510.63;;;-1.68;100.00
31761;BME280;18335;51.486;7.562;2023-04-04T03:03:22;101513.00;;;-2.08;100.00
31761;BME280;18335;51.486;7.562;2023-04-04T03:05:49;101512.13;;;-2.09;100.00
31761;BME280;18335;51.486;7.562;2023-04-04T03:08:17;101522.97;;;-1.89;100.00
31761;BME280;18335;51.486;7.562;2023-04-04T03:10:44;101521.56;;;-1.99;100.00
31761;BME280;18335;51.486;7.562;2023-04-04T03:13:11;101518.00;;;-1.99;100.00
31761;BME280;18335;51.486;7.562;2023-04-04T03:15:39;101513.09;;;-1.87;100.00
31761;BME280;18335;51.486;7.562;2023-04-04T03:18:06;101510.81;;;-1.97;100.00
31761;BME280;18335;51.486;7.562;2023-04-04T03:20:35;101513.38;;;-1.94;100.00
31761;BME280;18335;51.486;7.562;2023-04-04T03:23:01;101522.09;;;-1.89;100.00
31761;BME280;18335;51.486;7.562;2023-04-04T03:25:29;101508.63;;;-1.86;100.00
31761;BME280;18335;51.486;7.562;2023-04-04T03:27:56;101505.84;;;-1.83;100.00
31761;BME280;18335;51.486;7.562;2023-04-04T03:30:25;101497.59;;;-1.77;100.00
31761;BME280;18335;51.486;7.562;2023-04-04T03:32:51;101500.84;;;-1.69;100.00
31761;BME280;18335;51.486;7.562;2023-04-04T03:35:19;101499.69;;;-1.85;100.00
31761;BME280;18335;51.486;7.562;2023-04-04T03:37:46;101497.84;;;-1.85;100.00
31761;BME280;18335;51.486;7.562;2023-04-04T03:40:13;101499.53;;;-1.82;100.00
31761;BME280;18335;51.486;7.562;2023-04-04T03:42:42;101496.28;;;-1.90;100.00
31761;BME280;18335;51.486;7.562;2023-04-04T03:45:11;101487.84;;;-2.28;100.00
31761;BME280;18335;51.486;7.562;2023-04-04T03:47:39;101493.13;;;-2.01;100.00
31761;BME280;18335;51.486;7.562;2023-04-04T03:50:07;101485.47;;;-1.87;100.00
31761;BME280;18335;51.486;7.562;2023-04-04T03:52:37;101488.47;;;-1.96;100.00
31761;BME280;18335;51.486;7.562;2023-04-04T03:55:05;101477.31;;;-2.07;100.00
31761;BME280;18335;51.486;7.562;2023-04-04T03:57:32;101482.56;;;-2.04;100.00
31761;BME280;18335;51.486;7.562;2023-04-04T04:00:02;101485.22;;;-2.04;100.00
31761;BME280;18335;51.486;7.562;2023-04-04T04:02:37;101485.28;;;-2.31;100.00
31761;BME280;18335;51.486;7.562;2023-04-04T04:05:05;101482.22;;;-2.45;100.00
31761;BME280;18335;51.486;7.562;2023-04-04T04:07:32;101473.84;;;-2.34;100.00
31761;BME280;18335;51.486;7.562;2023-04-04T04:09:58;101475.88;;;-2.17;100.00
31761;BME280;18335;51.486;7.562;2023-04-04T04:12:25;101473.19;;;-2.16;100.00
31761;BME280;18335;51.486;7.562;2023-04-04T04:14:52;101476.00;;;-2.20;100.00
31761;BME280;18335;51.486;7.562;2023-04-04T04:17:20;101473.31;;;-2.20;100.00
31761;BME280;18335;51.486;7.562;2023-04-04T04:19:47;101470.34;;;-2.36;100.00
31761;BME280;18335;51.486;7.562;2023-04-04T04:22:15;101473.88;;;-2.36;100.00
31761;BME280;18335;51.486;7.562;2023-04-04T04:24:42;101478.16;;;-2.30;100.00
31761;BME280;18335;51.486;7.562;2023-04-04T04:27:09;101468.38;;;-2.31;100.00
31761;BME280;18335;51.486;7.562;2023-04-04T04:29:36;101485.19;;;-2.28;100.00
31761;BME280;18335;51.486;7.562;2023-04-04T04:32:03;101485.41;;;-2.34;100.00
31761;BME280;18335;51.486;7.562;2023-04-04T04:34:36;101478.06;;;-2.53;100.00
31761;BME280;18335;51.486;7.562;2023-04-04T04:37:03;101473.28;;;-2.44;100.00
31761;BME280;18335;51.486;7.562;2023-04-04T04:39:38;101478.84;;;-2.50;100.00
31761;BME280;18335;51.486;7.562;2023-04-04T04:42:44;101478.72;;;-2.47;100.00
31761;BME280;18335;51.486;7.562;2023-04-04T04:45:12;101475.38;;;-2.53;100.00
31761;BME280;18335;51.486;7.562;2023-04-04T04:47:43;101469.69;;;-2.43;100.00
31761;BME280;18335;51.486;7.562;2023-04-04T04:50:16;101467.06;;;-2.44;100.00
31761;BME280;18335;51.486;7.562;2023-04-04T04:52:46;101466.28;;;-2.48;100.00
31761;BME280;18335;51.486;7.562;2023-04-04T04:55:15;101473.00;;;-2.61;100.00
31761;BME280;18335;51.486;7.562;2023-04-04T04:57:47;101469.69;;;-2.43;100.00
31761;BME280;18335;51.486;7.562;2023-04-04T05:00:23;101480.72;;;-2.53;100.00
31761;BME280;18335;51.486;7.562;2023-04-04T05:02:53;101478.03;;;-2.52;100.00
31761;BME280;18335;51.486;7.562;2023-04-04T05:05:27;101486.25;;;-2.58;100.00
31761;BME280;18335;51.486;7.562;2023-04-04T05:08:01;101486.53;;;-2.41;100.00
31761;BME280;18335;51.486;7.562;2023-04-04T05:10:28;101488.88;;;-2.32;100.00
31761;BME280;18335;51.486;7.562;2023-04-04T05:12:56;101484.31;;;-2.28;100.00
31761;BME280;18335;51.486;7.562;2023-04-04T05:15:26;101488.78;;;-2.29;100.00
31761;BME280;18335;51.486;7.562;2023-04-04T05:17:54;101488.22;;;-2.13;100.00
31761;BME280;18335;51.486;7.562;2023-04-04T05:20:21;101496.56;;;-2.22;100.00
31761;BME280;18335;51.486;7.562;2023-04-04T05:22:50;101488.03;;;-2.09;100.00
31761;BME280;18335;51.486;7.562;2023-04-04T05:25:23;101486.09;;;-2.04;100.00
31761;BME280;18335;51.486;7.562;2023-04-04T05:27:51;101491.03;;;-1.93;100.00
31761;BME280;18335;51.486;7.562;2023-04-04T05:30:20;101487.34;;;-1.89;100.00
31761;BME280;18335;51.486;7.562;2023-04-04T05:32:58;101485.59;;;-1.90;100.00
31761;BME280;18335;51.486;7.562;2023-04-04T05:35:28;101496.06;;;-1.84;100.00
31761;BME280;18335;51.486;7.562;2023-04-04T05:37:57;101500.59;;;-1.63;100.00
31761;BME280;18335;51.486;7.562;2023-04-04T05:40:24;101498.16;;;-1.69;100.00
31761;BME280;18335;51.486;7.562;2023-04-04T05:43:02;101496.53;;;-1.50;100.00
31761;BME280;18335;51.486;7.562;2023-04-04T05:45:35;101499.03;;;-1.45;100.00
31761;BME280;18335;51.486;7.562;2023-04-04T05:48:02;101502.78;;;-1.28;100.00
31761;BME280;18335;51.486;7.562;2023-04-04T05:50:35;101495.47;;;-1.23;100.00
31761;BME280;18335;51.486;7.562;2023-04-04T05:53:05;101494.81;;;-1.07;100.00
31761;BME280;18335;51.486;7.562;2023-04-04T05:55:32;101504.81;;;-1.11;100.00
31761;BME280;18335;51.486;7.562;2023-04-04T05:57:59;101515.34;;;-1.06;100.00
31761;BME280;18335;51.486;7.562;2023-04-04T06:00:41;101516.88;;;-1.23;100.00
31761;BME280;18335;51.486;7.562;2023-04-04T06:03:08;101513.84;;;-0.92;100.00
31761;BME280;18335;51.486;7.562;2023-04-04T06:05:35;101520.75;;;-0.86;100.00
31761;BME280;18335;51.486;7.562;2023-04-04T06:08:02;101521.38;;;-0.80;100.00
31761;BME280;18335;51.486;7.562;2023-04-04T06:10:30;101516.13;;;-0.61;100.00
31761;BME280;18335;51.486;7.562;2023-04-04T06:12:57;101520.25;;;-0.74;100.00
31761;BME280;18335;51.486;7.562;2023-04-04T06:15:23;101523.75;;;-0.72;100.00
31761;BME280;18335;51.486;7.562;2023-04-04T06:17:50;101526.47;;;-0.52;100.00
31761;BME280;18335;51.486;7.562;2023-04-04T06:20:17;101528.94;;;-0.47;100.00
31761;BME280;18335;51.486;7.562;2023-04-04T06:22:45;101532.00;;;-0.35;100.00
31761;BME280;18335;51.486;7.562;2023-04-04T06:25:12;101528.31;;;-0.32;100.00
31761;BME280;18335;51.486;7.562;2023-04-04T06:27:41;101541.00;;;-0.16;100.00
31761;BME280;18335;51.486;7.562;2023-04-04T06:30:09;101543.47;;;-0.11;100.00
31761;BME280;18335;51.486;7.562;2023-04-04T06:32:36;101546.38;;;-0.16;100.00
31761;BME280;18335;51.486;7.562;2023-04-04T06:35:07;101543.16;;;-0.04;100.00
31761;BME280;18335;51.486;7.562;2023-04-04T06:37:44;101542.47;;;-0.09;100.00
31761;BME280;18335;51.486;7.562;2023-04-04T06:40:18;101552.00;;;-0.02;100.00
31761;BME280;18335;51.486;7.562;2023-04-04T06:42:48;101553.69;;;0.01;100.00
31761;BME280;18335;51.486;7.562;2023-04-04T06:45:17;101563.66;;;-0.03;100.00
31761;BME280;18335;51.486;7.562;2023-04-04T06:47:44;101562.69;;;0.00;100.00
31761;BME280;18335;51.486;7.562;2023-04-04T06:50:11;101563.13;;;0.10;100.00
31761;BME280;18335;51.486;7.562;2023-04-04T06:52:38;101564.41;;;0.01;100.00
31761;BME280;18335;51.486;7.562;2023-04-04T06:55:06;101563.13;;;0.10;100.00
31761;BME280;18335;51.486;7.562;2023-04-04T06:57:33;101564.03;;;0.49;100.00
31761;BME280;18335;51.486;7.562;2023-04-04T07:00:01;101559.47;;;0.51;100.00
31761;BME280;18335;51.486;7.562;2023-04-04T07:02:28;101566.09;;;0.81;100.00
31761;BME280;18335;51.486;7.562;2023-04-04T07:04:55;101561.97;;;0.93;100.00
31761;BME280;18335;51.486;7.562;2023-04-04T07:07:22;101555.28;;;1.20;100.00
31761;BME280;18335;51.486;7.562;2023-04-04T07:09:49;101558.13;;;1.53;100.00
31761;BME280;18335;51.486;7.562;2023-04-04T07:12:16;101557.78;;;1.60;100.00
31761;BME280;18335;51.486;7.562;2023-04-04T07:14:43;101547.91;;;1.78;100.00
31761;BME280;18335;51.486;7.562;2023-04-04T07:17:11;101547.13;;;1.76;100.00
31761;BME280;18335;51.486;7.562;2023-04-04T07:19:38;101544.88;;;2.01;100.00
31761;BME280;18335;51.486;7.562;2023-04-04T07:22:05;101537.44;;;1.89;100.00
31761;BME280;18335;51.486;7.562;2023-04-04T07:24:32;101543.31;;;2.14;100.00
31761;BME280;18335;51.486;7.562;2023-04-04T07:26:58;101532.13;;;2.22;100.00
31761;BME280;18335;51.486;7.562;2023-04-04T07:29:25;101533.00;;;2.22;100.00
31761;BME280;18335;51.486;7.562;2023-04-04T07:31:52;101534.75;;;2.23;100.00
31761;BME280;18335;51.486;7.562;2023-04-04T07:34:20;101539.16;;;2.42;100.00
31761;BME280;18335;51.486;7.562;2023-04-04T07:36:47;101541.53;;;2.48;100.00
31761;BME280;18335;51.486;7.562;2023-04-04T07:39:14;101540.41;;;2.67;100.00
31761;BME280;18335;51.486;7.562;2023-04-04T07:41:41;101537.78;;;2.66;100.00
31761;BME280;18335;51.486;7.562;2023-04-04T07:44:08;101547.22;;;2.90;100.00
31761;BME280;18335;51.486;7.562;2023-04-04T07:46:35;101546.56;;;2.87;100.00
31761;BME280;18335;51.486;7.562;2023-04-04T07:49:02;101537.75;;;2.99;100.00
31761;BME280;18335;51.486;7.562;2023-04-04T07:51:30;101530.91;;;3.09;100.00
31761;BME280;18335;51.486;7.562;2023-04-04T07:53:57;101532.38;;;3.14;100.00
31761;BME280;18335;51.486;7.562;2023-04-04T07:56:24;101527.63;;;3.19;100.00
31761;BME280;18335;51.486;7.562;2023-04-04T07:58:51;101532.44;;;3.44;100.00
31761;BME280;18335;51.486;7.562;2023-04-04T08:01:18;101532.53;;;3.43;100.00
31761;BME280;18335;51.486;7.562;2023-04-04T08:03:44;101527.91;;;3.60;100.00
31761;BME280;18335;51.486;7.562;2023-04-04T08:06:11;101523.25;;;3.78;100.00
31761;BME280;18335;51.486;7.562;2023-04-04T08:08:39;101530.28;;;3.80;100.00
31761;BME280;18335;51.486;7.562;2023-04-04T08:11:07;101522.28;;;3.79;100.00
31761;BME280;18335;51.486;7.562;2023-04-04T08:13:34;101517.31;;;4.01;100.00
31761;BME280;18335;51.486;7.562;2023-04-04T08:16:01;101514.09;;;4.24;100.00
31761;BME280;18335;51.486;7.562;2023-04-04T08:18:28;101511.63;;;4.35;100.00
31761;BME280;18335;51.486;7.562;2023-04-04T08:20:54;101513.56;;;4.47;100.00
31761;BME280;18335;51.486;7.562;2023-04-04T08:23:21;101503.78;;;4.17;100.00
31761;BME280;18335;51.486;7.562;2023-04-04T08:25:49;101516.16;;;4.35;100.00
31761;BME280;18335;51.486;7.562;2023-04-04T08:28:16;101520.28;;;4.55;100.00
31761;BME280;18335;51.486;7.562;2023-04-04T08:30:46;101525.31;;;4.46;100.00
31761;BME280;18335;51.486;7.562;2023-04-04T08:33:16;101518.19;;;4.74;100.00
31761;BME280;18335;51.486;7.562;2023-04-04T08:35:44;101506.97;;;4.80;100.00
31761;BME280;18335;51.486;7.562;2023-04-04T08:38:10;101506.78;;;4.83;100.00
31761;BME280;18335;51.486;7.562;2023-04-04T08:40:39;101503.75;;;4.87;100.00
31761;BME280;18335;51.486;7.562;2023-04-04T08:43:07;101506.38;;;4.89;100.00
31761;BME280;18335;51.486;7.562;2023-04-04T08:45:35;101504.28;;;4.80;100.00
31761;BME280;18335;51.486;7.562;2023-04-04T08:48:03;101501.34;;;4.97;100.00
31761;BME280;18335;51.486;7.562;2023-04-04T08:50:33;101499.19;;;5.16;100.00
31761;BME280;18335;51.486;7.562;2023-04-04T08:53:02;101513.06;;;5.24;100.00
31761;BME280;18335;51.486;7.562;2023-04-04T08:55:30;101508.56;;;5.11;100.00
31761;BME280;18335;51.486;7.562;2023-04-04T08:57:57;101511.47;;;5.08;100.00
31761;BME280;18335;51.486;7.562;2023-04-04T09:00:25;101515.97;;;5.21;100.00
31761;BME280;18335;51.486;7.562;2023-04-04T09:02:55;101508.81;;;5.34;100.00
31761;BME280;18335;51.486;7.562;2023-04-04T09:05:26;101506.84;;;5.36;100.00
31761;BME280;18335;51.486;7.562;2023-04-04T09:07:54;101507.06;;;5.33;100.00
31761;BME280;18335;51.486;7.562;2023-04-04T09:10:21;101505.44;;;5.57;100.00
31761;BME280;18335;51.486;7.562;2023-04-04T09:12:50;101505.69;;;5.40;100.00
31761;BME280;18335;51.486;7.562;2023-04-04T09:15:17;101513.34;;;5.20;100.00
31761;BME280;18335;51.486;7.562;2023-04-04T09:17:45;101511.91;;;5.28;100.00
31761;BME280;18335;51.486;7.562;2023-04-04T09:20:34;101502.84;;;5.69;100.00
31761;BME280;18335;51.486;7.562;2023-04-04T09:23:03;101502.16;;;5.52;100.00
31761;BME280;18335;51.486;7.562;2023-04-04T09:25:30;101507.19;;;5.71;100.00
31761;BME280;18335;51.486;7.562;2023-04-04T09:27:57;101498.59;;;5.52;100.00
31761;BME280;18335;51.486;7.562;2023-04-04T09:30:27;101502.31;;;5.64;100.00
31761;BME280;18335;51.486;7.562;2023-04-04T09:32:55;101501.44;;;5.90;100.00
31761;BME280;18335;51.486;7.562;2023-04-04T09:35:22;101505.31;;;5.86;100.00
31761;BME280;18335;51.486;7.562;2023-04-04T09:37:49;101500.25;;;6.06;100.00
31761;BME280;18335;51.486;7.562;2023-04-04T09:40:17;101506.47;;;5.82;98.93
31761;BME280;18335;51.486;7.562;2023-04-04T09:42:44;101499.38;;;5.67;100.00
31761;BME280;18335;51.486;7.562;2023-04-04T09:45:11;101505.47;;;5.83;100.00
31761;BME280;18335;51.486;7.562;2023-04-04T09:47:39;101502.84;;;5.69;100.00
31761;BME280;18335;51.486;7.562;2023-04-04T09:50:19;101505.69;;;5.67;100.00
31761;BME280;18335;51.486;7.562;2023-04-04T09:52:47;101497.38;;;5.56;100.00
31761;BME280;18335;51.486;7.562;2023-04-04T09:55:14;101497.72;;;5.51;100.00
31761;BME280;18335;51.486;7.562;2023-04-04T09:57:41;101507.13;;;5.58;100.00
31761;BME280;18335;51.486;7.562;2023-04-04T10:00:11;101498.34;;;5.82;100.00
31761;BME280;18335;51.486;7.562;2023-04-04T10:02:46;101494.47;;;5.59;100.00
31761;BME280;18335;51.486;7.562;2023-04-04T10:05:15;101486.28;;;6.00;98.29
31761;BME280;18335;51.486;7.562;2023-04-04T10:07:42;101493.63;;;5.98;100.00
31761;BME280;18335;51.486;7.562;2023-04-04T10:10:12;101491.28;;;6.06;100.00
31761;BME280;18335;51.486;7.562;2023-04-04T10:12:40;101489.84;;;5.74;100.00
31761;BME280;18335;51.486;7.562;2023-04-04T10:15:07;101485.00;;;6.05;100.00
31761;BME280;18335;51.486;7.562;2023-04-04T10:17:36;101473.53;;;6.27;100.00
31761;BME280;18335;51.486;7.562;2023-04-04T10:20:04;101477.63;;;6.45;100.00
31761;BME280;18335;51.486;7.562;2023-04-04T10:22:34;101474.78;;;6.22;100.00
31761;BME280;18335;51.486;7.562;2023-04-04T10:25:01;101470.81;;;6.27;100.00
31761;BME280;18335;51.486;7.562;2023-04-04T10:27:28;101470.38;;;6.21;98.01
31761;BME280;18335;51.486;7.562;2023-04-04T10:29:55;101461.03;;;6.62;97.58
31761;BME280;18335;51.486;7.562;2023-04-04T10:32:26;101461.81;;;6.14;97.06
31761;BME280;18335;51.486;7.562;2023-04-04T10:34:58;101468.63;;;6.32;100.00
31761;BME280;18335;51.486;7.562;2023-04-04T10:37:27;101451.56;;;6.68;100.00
31761;BME280;18335;51.486;7.562;2023-04-04T10:40:04;101452.44;;;6.68;98.37
31761;BME280;18335;51.486;7.562;2023-04-04T10:42:37;101442.44;;;6.69;96.88
31761;BME280;18335;51.486;7.562;2023-04-04T10:45:06;101440.28;;;6.61;95.36
31761;BME280;18335;51.486;7.562;2023-04-04T10:47:35;101449.59;;;6.83;100.00
31761;BME280;18335;51.486;7.562;2023-04-04T10:50:03;101442.88;;;6.76;89.42
31761;BME280;18335;51.486;7.562;2023-04-04T10:52:32;101447.91;;;6.31;96.26
31761;BME280;18335;51.486;7.562;2023-04-04T10:55:03;101437.81;;;6.58;98.25
31761;BME280;18335;51.486;7.562;2023-04-04T10:57:32;101426.81;;;6.73;90.67
31761;BME280;18335;51.486;7.562;2023-04-04T11:00:01;101424.50;;;6.92;98.34
31761;BME280;18335;51.486;7.562;2023-04-04T11:02:44;101423.97;;;6.87;94.35
31761;BME280;18335;51.486;7.562;2023-04-04T11:05:11;101418.16;;;7.04;93.34
31761;BME280;18335;51.486;7.562;2023-04-04T11:07:40;101420.81;;;6.93;89.38
31761;BME280;18335;51.486;7.562;2023-04-04T11:10:19;101414.19;;;6.84;92.43
31761;BME280;18335;51.486;7.562;2023-04-04T11:12:51;101412.25;;;6.86;92.88
31761;BME280;18335;51.486;7.562;2023-04-04T11:15:20;101411.03;;;7.14;95.77
31761;BME280;18335;51.486;7.562;2023-04-04T11:18:04;101412.22;;;7.22;90.38
31761;BME280;18335;51.486;7.562;2023-04-04T11:20:32;101413.88;;;7.12;94.90
31761;BME280;18335;51.486;7.562;2023-04-04T11:23:04;101409.75;;;7.19;96.51
31761;BME280;18335;51.486;7.562;2023-04-04T11:25:34;101411.50;;;7.08;89.15
31761;BME280;18335;51.486;7.562;2023-04-04T11:28:06;101406.38;;;7.16;99.55
31761;BME280;18335;51.486;7.562;2023-04-04T11:30:38;101405.31;;;7.30;95.80
31761;BME280;18335;51.486;7.562;2023-04-04T11:33:10;101406.66;;;7.24;96.55
31761;BME280;18335;51.486;7.562;2023-04-04T11:35:39;101407.09;;;6.71;84.01
31761;BME280;18335;51.486;7.562;2023-04-04T11:38:14;101390.41;;;6.88;86.05
31761;BME280;18335;51.486;7.562;2023-04-04T11:40:52;101396.03;;;7.21;96.46
31761;BME280;18335;51.486;7.562;2023-04-04T11:43:19;101385.44;;;6.82;87.42
31761;BME280;18335;51.486;7.562;2023-04-04T11:45:46;101390.16;;;7.03;95.90
31761;BME280;18335;51.486;7.562;2023-04-04T11:48:15;101386.69;;;7.01;86.71
31761;BME280;18335;51.486;7.562;2023-04-04T11:50:45;101379.28;;;7.03;93.21
31761;BME280;18335;51.486;7.562;2023-04-04T11:53:14;101389.22;;;7.39;99.70
31761;BME280;18335;51.486;7.562;2023-04-04T11:55:46;101388.25;;;7.40;87.16
31761;BME280;18335;51.486;7.562;2023-04-04T11:58:16;101381.72;;;7.54;93.99
31761;BME280;18335;51.486;7.562;2023-04-04T12:00:45;101384.72;;;7.27;92.63
31761;BME280;18335;51.486;7.562;2023-04-04T12:03:14;101388.34;;;7.39;85.89
31761;BME280;18335;51.486;7.562;2023-04-04T12:05:43;101392.53;;;7.32;90.13
31761;BME280;18335;51.486;7.562;2023-04-04T12:08:10;101384.59;;;7.52;85.30
31761;BME280;18335;51.486;7.562;2023-04-04T12:10:38;101381.34;;;7.47;86.98
31761;BME280;18335;51.486;7.562;2023-04-04T12:13:08;101378.13;;;7.99;90.64
31761;BME280;18335;51.486;7.562;2023-04-04T12:15:35;101365.84;;;7.71;89.29
31761;BME280;18335;51.486;7.562;2023-04-04T12:18:05;101363.81;;;7.40;81.42
31761;BME280;18335;51.486;7.562;2023-04-04T12:20:32;101352.41;;;7.35;75.09
31761;BME280;18335;51.486;7.562;2023-04-04T12:23:00;101354.22;;;7.58;88.96
31761;BME280;18335;51.486;7.562;2023-04-04T12:25:27;101357.75;;;7.94;86.24
31761;BME280;18335;51.486;7.562;2023-04-04T12:27:58;101350.56;;;7.70;78.33
31761;BME280;18335;51.486;7.562;2023-04-04T12:30:27;101341.44;;;7.94;96.03
31761;BME280;18335;51.486;7.562;2023-04-04T12:32:54;101338.25;;;8.00;77.92
31761;BME280;18335;51.486;7.562;2023-04-04T12:35:21;101333.19;;;8.06;77.27
31761;BME280;18335;51.486;7.562;2023-04-04T12:38:00;101334.50;;;7.90;72.88
31761;BME280;18335;51.486;7.562;2023-04-04T12:40:34;101330.06;;;7.89;73.84
31761;BME280;18335;51.486;7.562;2023-04-04T12:43:04;101327.38;;;8.00;82.40
31761;BME280;18335;51.486;7.562;2023-04-04T12:45:35;101326.13;;;8.04;79.19
31761;BME280;18335;51.486;7.562;2023-04-04T12:48:08;101329.19;;;8.21;82.98
31761;BME280;18335;51.486;7.562;2023-04-04T12:50:48;101319.72;;;8.05;81.53
31761;BME280;18335;51.486;7.562;2023-04-04T12:53:18;101315.88;;;7.85;68.24
31761;BME280;18335;51.486;7.562;2023-04-04T12:55:45;101311.91;;;7.89;76.91